sensor_id;sensor_type;location;lat;lon;timestamp;pressure;altitude;pressure_sealevel;temperature;humidity
54329;BME280;40710;51.120;13.136;2023-09-19T00:01:53;98616.72;;;21.55;62.21
54329;BME280;40710;51.120;13.136;2023-09-19T00:04:17;98627.69;;;20.70;65.11
54329;BME280;40710;51.120;13.136;2023-09-19T00:06:43;98625.06;;;20.94;64.78
54329;BME280;40710;51.120;13.136;2023-09-19T00:09:08;98613.38;;;21.53;62.15
54329;BME280;40710;51.120;13.136;2023-09-19T00:11:35;98622.97;;;20.55;65.32
54329;BME280;40710;51.120;13.136;2023-09-19T00:13:59;98609.00;;;21.60;62.78
54329;BME280;40710;51.120;13.136;2023-09-19T00:16:24;98611.03;;;21.09;63.71
54329;BME280;40710;51.120;13.136;2023-09-19T00:18:49;98613.16;;;21.63;62.26
54329;BME280;40710;51.120;13.136;2023-09-19T00:21:13;98610.88;;;21.10;63.89
54329;BME280;40710;51.120;13.136;2023-09-19T00:23:39;98613.19;;;21.38;63.42
54329;BME280;40710;51.120;13.136;2023-09-19T00:26:06;98610.97;;;21.83;61.35
54329;BME280;40710;51.120;13.136;2023-09-19T00:28:31;98621.06;;;21.48;62.92
54329;BME280;40710;51.120;13.136;2023-09-19T00:30:56;98603.13;;;21.65;61.60
54329;BME280;40710;51.120;13.136;2023-09-19T00:33:22;98621.81;;;20.58;65.96
54329;BME280;40710;51.120;13.136;2023-09-19T00:38:12;98615.03;;;20.80;65.18
54329;BME280;40710;51.120;13.136;2023-09-19T00:40:36;98616.38;;;20.76;64.94
54329;BME280;40710;51.120;13.136;2023-09-19T00:43:01;98616.69;;;20.65;65.59
54329;BME280;40710;51.120;13.136;2023-09-19T00:45:25;98623.28;;;20.44;66.18
54329;BME280;40710;51.120;13.136;2023-09-19T00:47:51;98618.06;;;21.10;64.50
54329;BME280;40710;51.120;13.136;2023-09-19T00:50:18;98616.06;;;20.95;64.72
54329;BME280;40710;51.120;13.136;2023-09-19T00:52:44;98620.41;;;20.29;66.79
54329;BME280;40710;51.120;13.136;2023-09-19T00:55:11;98632.41;;;20.92;65.47
54329;BME280;40710;51.120;13.136;2023-09-19T00:57:39;98640.41;;;20.25;66.52
54329;BME280;40710;51.120;13.136;2023-09-19T01:00:07;98634.41;;;21.07;64.11
54329;BME280;40710;51.120;13.136;2023-09-19T01:02:33;98627.88;;;20.93;64.16
54329;BME280;40710;51.120;13.136;2023-09-19T01:04:58;98639.28;;;20.95;63.96
54329;BME280;40710;51.120;13.136;2023-09-19T01:07:24;98618.06;;;21.10;64.08
54329;BME280;40710;51.120;13.136;2023-09-19T01:09:49;98630.75;;;21.00;64.92
54329;BME280;40710;51.120;13.136;2023-09-19T01:12:23;98630.75;;;21.08;64.00
54329;BME280;40710;51.120;13.136;2023-09-19T01:14:59;98634.69;;;20.63;65.70
54329;BME280;40710;51.120;13.136;2023-09-19T01:17:34;98636.41;;;20.96;64.39
54329;BME280;40710;51.120;13.136;2023-09-19T01:28:30;98636.09;;;21.57;61.83
54329;BME280;40710;51.120;13.136;2023-09-19T01:31:02;98639.09;;;21.29;62.82
54329;BME280;40710;51.120;13.136;2023-09-19T01:33:27;98641.78;;;21.13;63.09
54329;BME280;40710;51.120;13.136;2023-09-19T01:35:58;98641.94;;;21.11;62.89
54329;BME280;40710;51.120;13.136;2023-09-19T01:38:23;98645.59;;;21.19;62.94
54329;BME280;40710;51.120;13.136;2023-09-19T01:41:00;98652.13;;;21.32;62.26
54329;BME280;40710;51.120;13.136;2023-09-19T01:43:36;98640.97;;;22.09;60.41
54329;BME280;40710;51.120;13.136;2023-09-19T01:46:13;98637.34;;;21.86;60.12
54329;BME280;40710;51.120;13.136;2023-09-19T01:48:49;98641.72;;;21.79;60.71
54329;BME280;40710;51.120;13.136;2023-09-19T01:51:33;98637.25;;;21.30;62.54
54329;BME280;40710;51.120;13.136;2023-09-19T01:54:03;98645.44;;;21.12;62.93
54329;BME280;40710;51.120;13.136;2023-09-19T01:56:37;98639.09;;;20.88;63.50
54329;BME280;40710;51.120;13.136;2023-09-19T01:59:16;98631.41;;;21.51;61.25
54329;BME280;40710;51.120;13.136;2023-09-19T02:01:44;98627.91;;;21.34;62.16
54329;BME280;40710;51.120;13.136;2023-09-19T02:04:10;98634.56;;;21.30;62.49
54329;BME280;40710;51.120;13.136;2023-09-19T02:06:35;98631.91;;;21.30;61.74
54329;BME280;40710;51.120;13.136;2023-09-19T02:08:59;98633.03;;;21.68;60.85
54329;BME280;40710;51.120;13.136;2023-09-19T02:11:24;98649.28;;;20.85;62.76
54329;BME280;40710;51.120;13.136;2023-09-19T02:13:50;98657.06;;;20.70;63.34
54329;BME280;40710;51.120;13.136;2023-09-19T02:16:18;98663.16;;;21.13;62.45
54329;BME280;40710;51.120;13.136;2023-09-19T02:18:44;98652.63;;;20.95;62.10
54329;BME280;40710;51.120;13.136;2023-09-19T02:21:08;98662.72;;;20.67;63.29
54329;BME280;40710;51.120;13.136;2023-09-19T02:23:36;98661.13;;;20.99;62.62
54329;BME280;40710;51.120;13.136;2023-09-19T02:26:01;98657.09;;;21.77;60.45
54329;BME280;40710;51.120;13.136;2023-09-19T02:28:28;98659.94;;;20.93;63.14
54329;BME280;40710;51.120;13.136;2023-09-19T02:30:56;98668.72;;;20.61;63.76
54329;BME280;40710;51.120;13.136;2023-09-19T02:33:21;98672.78;;;20.73;63.44
54329;BME280;40710;51.120;13.136;2023-09-19T02:35:45;98658.59;;;20.89;63.37
54329;BME280;40710;51.120;13.136;2023-09-19T02:38:10;98670.31;;;20.45;63.93
54329;BME280;40710;51.120;13.136;2023-09-19T02:40:37;98669.50;;;20.53;63.62
54329;BME280;40710;51.120;13.136;2023-09-19T02:43:01;98656.28;;;21.10;62.42
54329;BME280;40710;51.120;13.136;2023-09-19T02:45:26;98661.13;;;21.15;62.06
54329;BME280;40710;51.120;13.136;2023-09-19T02:47:51;98672.78;;;20.81;62.90
54329;BME280;40710;51.120;13.136;2023-09-19T02:50:16;98659.63;;;21.12;61.25
54329;BME280;40710;51.120;13.136;2023-09-19T02:52:43;98684.81;;;21.02;61.38
54329;BME280;40710;51.120;13.136;2023-09-19T02:55:08;98661.16;;;21.48;60.33
54329;BME280;40710;51.120;13.136;2023-09-19T02:57:33;98670.31;;;21.45;60.33
54329;BME280;40710;51.120;13.136;2023-09-19T02:59:59;98680.72;;;21.57;60.09
54329;BME280;40710;51.120;13.136;2023-09-19T03:02:24;98669.84;;;21.50;60.53
54329;BME280;40710;51.120;13.136;2023-09-19T03:04:49;98676.34;;;21.31;61.06
54329;BME280;40710;51.120;13.136;2023-09-19T03:07:15;98696.94;;;20.63;63.00
54329;BME280;40710;51.120;13.136;2023-09-19T03:09:40;98709.88;;;20.58;63.17
54329;BME280;40710;51.120;13.136;2023-09-19T03:12:05;98713.72;;;20.55;62.85
54329;BME280;40710;51.120;13.136;2023-09-19T03:14:30;98701.13;;;20.66;63.09
54329;BME280;40710;51.120;13.136;2023-09-19T03:16:59;98686.66;;;20.85;62.48
54329;BME280;40710;51.120;13.136;2023-09-19T03:19:24;98703.69;;;20.41;64.04
54329;BME280;40710;51.120;13.136;2023-09-19T03:21:50;98700.53;;;21.21;61.66
54329;BME280;40710;51.120;13.136;2023-09-19T03:24:15;98708.47;;;20.64;62.83
54329;BME280;40710;51.120;13.136;2023-09-19T03:26:40;98718.47;;;20.27;63.60
54329;BME280;40710;51.120;13.136;2023-09-19T03:29:04;98707.41;;;20.56;63.38
54329;BME280;40710;51.120;13.136;2023-09-19T03:31:32;98712.84;;;20.81;62.94
54329;BME280;40710;51.120;13.136;2023-09-19T03:33:57;98714.41;;;21.17;60.86
54329;BME280;40710;51.120;13.136;2023-09-19T03:36:21;98698.69;;;21.30;60.53
54329;BME280;40710;51.120;13.136;2023-09-19T03:38:46;98704.38;;;21.10;61.00
54329;BME280;40710;51.120;13.136;2023-09-19T03:41:10;98711.53;;;20.51;62.73
54329;BME280;40710;51.120;13.136;2023-09-19T03:43:38;98687.72;;;21.49;59.85
54329;BME280;40710;51.120;13.136;2023-09-19T03:46:03;98701.53;;;20.95;61.75
54329;BME280;40710;51.120;13.136;2023-09-19T03:48:29;98690.88;;;21.28;60.52
54329;BME280;40710;51.120;13.136;2023-09-19T03:50:54;98709.88;;;21.09;61.16
54329;BME280;40710;51.120;13.136;2023-09-19T03:53:21;98697.69;;;21.23;60.29
54329;BME280;40710;51.120;13.136;2023-09-19T03:55:45;98707.56;;;21.39;60.06
54329;BME280;40710;51.120;13.136;2023-09-19T03:58:10;98719.22;;;20.96;60.44
54329;BME280;40710;51.120;13.136;2023-09-19T04:00:35;98714.88;;;20.45;62.19
54329;BME280;40710;51.120;13.136;2023-09-19T04:03:00;98711.28;;;20.28;63.29
54329;BME280;40710;51.120;13.136;2023-09-19T04:05:26;98703.47;;;20.77;61.82
54329;BME280;40710;51.120;13.136;2023-09-19T04:07:51;98715.47;;;20.65;62.03
54329;BME280;40710;51.120;13.136;2023-09-19T04:10:16;98719.88;;;20.48;62.39
54329;BME280;40710;51.120;13.136;2023-09-19T04:12:40;98719.53;;;20.85;61.47
54329;BME280;40710;51.120;13.136;2023-09-19T04:15:05;98727.97;;;20.30;63.37
54329;BME280;40710;51.120;13.136;2023-09-19T04:17:30;98733.91;;;20.50;62.22
54329;BME280;40710;51.120;13.136;2023-09-19T04:19:57;98739.38;;;20.14;63.60
54329;BME280;40710;51.120;13.136;2023-09-19T04:22:21;98733.13;;;19.97;64.25
54329;BME280;40710;51.120;13.136;2023-09-19T04:24:46;98740.19;;;19.62;65.44
54329;BME280;40710;51.120;13.136;2023-09-19T04:27:11;98736.88;;;19.86;63.80
54329;BME280;40710;51.120;13.136;2023-09-19T04:29:38;98726.50;;;20.35;62.59
54329;BME280;40710;51.120;13.136;2023-09-19T04:32:03;98730.34;;;20.67;62.17
54329;BME280;40710;51.120;13.136;2023-09-19T04:34:30;98736.97;;;20.29;62.06
54329;BME280;40710;51.120;13.136;2023-09-19T04:36:54;98748.69;;;19.83;64.64
54329;BME280;40710;51.120;13.136;2023-09-19T04:39:22;98758.56;;;20.17;63.18
54329;BME280;40710;51.120;13.136;2023-09-19T04:41:49;98763.22;;;19.89;63.82
54329;BME280;40710;51.120;13.136;2023-09-19T04:44:14;98755.09;;;20.94;61.60
54329;BME280;40710;51.120;13.136;2023-09-19T04:46:38;98764.19;;;20.06;63.38
54329;BME280;40710;51.120;13.136;2023-09-19T04:49:03;98765.94;;;20.50;62.06
54329;BME280;40710;51.120;13.136;2023-09-19T04:51:28;98775.13;;;20.55;62.17
54329;BME280;40710;51.120;13.136;2023-09-19T04:53:57;98781.84;;;20.33;62.57
54329;BME280;40710;51.120;13.136;2023-09-19T04:56:22;98777.03;;;20.63;61.85
54329;BME280;40710;51.120;13.136;2023-09-19T04:58:47;98792.13;;;19.94;62.83
54329;BME280;40710;51.120;13.136;2023-09-19T05:01:12;98770.53;;;21.17;60.55
54329;BME280;40710;51.120;13.136;2023-09-19T05:03:39;98779.63;;;20.81;61.18
54329;BME280;40710;51.120;13.136;2023-09-19T05:06:03;98778.91;;;20.79;61.60
54329;BME280;40710;51.120;13.136;2023-09-19T05:08:29;98786.56;;;20.39;61.71
54329;BME280;40710;51.120;13.136;2023-09-19T05:10:54;98795.47;;;20.22;62.20
54329;BME280;40710;51.120;13.136;2023-09-19T05:13:20;98790.47;;;20.88;60.54
54329;BME280;40710;51.120;13.136;2023-09-19T05:15:44;98798.69;;;20.60;61.78
54329;BME280;40710;51.120;13.136;2023-09-19T05:18:09;98810.00;;;20.28;63.11
54329;BME280;40710;51.120;13.136;2023-09-19T05:20:35;98797.25;;;20.66;61.82
54329;BME280;40710;51.120;13.136;2023-09-19T05:23:04;98791.84;;;21.00;60.22
54329;BME280;40710;51.120;13.136;2023-09-19T05:25:32;98809.03;;;20.29;62.44
54329;BME280;40710;51.120;13.136;2023-09-19T05:27:58;98807.72;;;21.02;60.36
54329;BME280;40710;51.120;13.136;2023-09-19T05:30:24;98803.19;;;21.69;58.48
54329;BME280;40710;51.120;13.136;2023-09-19T05:32:48;98817.72;;;21.00;60.14
54329;BME280;40710;51.120;13.136;2023-09-19T05:35:13;98812.44;;;21.24;59.63
54329;BME280;40710;51.120;13.136;2023-09-19T05:37:37;98821.69;;;20.61;61.16
54329;BME280;40710;51.120;13.136;2023-09-19T05:40:02;98826.44;;;20.15;62.78
54329;BME280;40710;51.120;13.136;2023-09-19T05:42:34;98814.41;;;21.06;60.08
54329;BME280;40710;51.120;13.136;2023-09-19T05:44:58;98808.19;;;21.64;58.53
54329;BME280;40710;51.120;13.136;2023-09-19T05:47:23;98814.94;;;21.09;59.37
54329;BME280;40710;51.120;13.136;2023-09-19T05:49:48;98815.44;;;20.70;61.18
54329;BME280;40710;51.120;13.136;2023-09-19T05:52:14;98833.97;;;20.46;61.67
54329;BME280;40710;51.120;13.136;2023-09-19T05:54:38;98843.06;;;20.09;62.99
54329;BME280;40710;51.120;13.136;2023-09-19T05:57:03;98832.66;;;20.50;62.13
54329;BME280;40710;51.120;13.136;2023-09-19T05:59:27;98826.75;;;21.07;60.18
54329;BME280;40710;51.120;13.136;2023-09-19T06:01:52;98815.38;;;22.21;57.13
54329;BME280;40710;51.120;13.136;2023-09-19T06:04:17;98839.13;;;20.65;60.34
54329;BME280;40710;51.120;13.136;2023-09-19T06:06:43;98841.41;;;20.94;60.57
54329;BME280;40710;51.120;13.136;2023-09-19T06:09:07;98851.38;;;20.84;60.67
54329;BME280;40710;51.120;13.136;2023-09-19T06:11:35;98848.53;;;21.20;59.68
54329;BME280;40710;51.120;13.136;2023-09-19T06:14:01;98842.66;;;21.17;59.03
54329;BME280;40710;51.120;13.136;2023-09-19T06:16:26;98844.00;;;21.80;58.50
54329;BME280;40710;51.120;13.136;2023-09-19T06:18:51;98844.50;;;21.92;57.54
54329;BME280;40710;51.120;13.136;2023-09-19T06:21:17;98842.78;;;20.99;59.34
54329;BME280;40710;51.120;13.136;2023-09-19T06:23:42;98849.72;;;21.42;58.82
54329;BME280;40710;51.120;13.136;2023-09-19T06:26:07;98863.53;;;21.72;58.14
54329;BME280;40710;51.120;13.136;2023-09-19T06:28:32;98873.72;;;20.75;60.11
54329;BME280;40710;51.120;13.136;2023-09-19T06:30:57;98866.34;;;21.54;57.60
54329;BME280;40710;51.120;13.136;2023-09-19T06:33:22;98875.53;;;21.09;59.26
54329;BME280;40710;51.120;13.136;2023-09-19T06:35:47;98866.03;;;21.74;57.66
54329;BME280;40710;51.120;13.136;2023-09-19T06:38:12;98846.84;;;22.27;55.83
54329;BME280;40710;51.120;13.136;2023-09-19T06:40:37;98862.44;;;21.32;57.56
54329;BME280;40710;51.120;13.136;2023-09-19T06:43:02;98851.66;;;22.24;55.49
54329;BME280;40710;51.120;13.136;2023-09-19T06:45:26;98865.03;;;21.75;56.14
54329;BME280;40710;51.120;13.136;2023-09-19T06:47:52;98872.06;;;21.67;55.74
54329;BME280;40710;51.120;13.136;2023-09-19T06:50:21;98856.03;;;22.17;53.65
54329;BME280;40710;51.120;13.136;2023-09-19T06:52:47;98867.97;;;22.78;51.58
54329;BME280;40710;51.120;13.136;2023-09-19T06:55:14;98877.47;;;23.06;50.61
54329;BME280;40710;51.120;13.136;2023-09-19T06:57:40;98877.72;;;24.05;48.02
54329;BME280;40710;51.120;13.136;2023-09-19T07:00:05;98891.69;;;22.98;50.55
54329;BME280;40710;51.120;13.136;2023-09-19T07:02:35;98891.63;;;23.22;50.15
54329;BME280;40710;51.120;13.136;2023-09-19T07:04:59;98896.47;;;22.71;51.23
54329;BME280;40710;51.120;13.136;2023-09-19T07:07:24;98900.38;;;23.79;49.30
54329;BME280;40710;51.120;13.136;2023-09-19T07:09:48;98890.38;;;24.57;47.46
54329;BME280;40710;51.120;13.136;2023-09-19T07:12:13;98902.41;;;23.46;49.82
54329;BME280;40710;51.120;13.136;2023-09-19T07:14:38;98891.22;;;24.58;47.63
54329;BME280;40710;51.120;13.136;2023-09-19T07:17:03;98891.97;;;24.96;46.50
54329;BME280;40710;51.120;13.136;2023-09-19T07:19:28;98904.75;;;24.64;46.22
54329;BME280;40710;51.120;13.136;2023-09-19T07:21:53;98882.66;;;25.43;45.22
54329;BME280;40710;51.120;13.136;2023-09-19T07:24:18;98923.19;;;22.88;49.37
54329;BME280;40710;51.120;13.136;2023-09-19T07:26:42;98918.81;;;22.95;49.35
54329;BME280;40710;51.120;13.136;2023-09-19T07:29:07;98913.63;;;23.49;47.75
54329;BME280;40710;51.120;13.136;2023-09-19T07:31:33;98925.66;;;23.22;48.44
54329;BME280;40710;51.120;13.136;2023-09-19T07:33:58;98919.38;;;23.38;46.55
54329;BME280;40710;51.120;13.136;2023-09-19T07:36:22;98902.84;;;26.34;40.91
54329;BME280;40710;51.120;13.136;2023-09-19T07:38:48;98912.72;;;25.83;41.75
54329;BME280;40710;51.120;13.136;2023-09-19T07:41:13;98927.72;;;24.06;43.82
54329;BME280;40710;51.120;13.136;2023-09-19T07:43:37;98926.59;;;24.61;42.72
54329;BME280;40710;51.120;13.136;2023-09-19T07:46:05;98907.47;;;27.93;36.95
54329;BME280;40710;51.120;13.136;2023-09-19T07:48:31;98924.53;;;27.39;37.49
54329;BME280;40710;51.120;13.136;2023-09-19T07:50:55;98922.31;;;27.14;37.71
54329;BME280;40710;51.120;13.136;2023-09-19T07:53:20;98921.31;;;27.77;36.57
54329;BME280;40710;51.120;13.136;2023-09-19T07:55:46;98926.47;;;27.58;37.47
54329;BME280;40710;51.120;13.136;2023-09-19T07:58:12;98927.41;;;28.99;35.74
54329;BME280;40710;51.120;13.136;2023-09-19T08:00:37;98937.66;;;28.57;35.40
54329;BME280;40710;51.120;13.136;2023-09-19T08:03:03;98938.44;;;29.17;34.46
54329;BME280;40710;51.120;13.136;2023-09-19T08:05:28;98946.00;;;28.75;35.29
54329;BME280;40710;51.120;13.136;2023-09-19T08:07:53;98940.78;;;28.74;34.73
54329;BME280;40710;51.120;13.136;2023-09-19T08:10:18;98940.84;;;30.23;32.63
54329;BME280;40710;51.120;13.136;2023-09-19T08:12:43;98962.59;;;28.32;35.68
54329;BME280;40710;51.120;13.136;2023-09-19T08:15:15;98959.19;;;29.37;34.07
54329;BME280;40710;51.120;13.136;2023-09-19T08:17:40;98937.69;;;31.57;30.70
54329;BME280;40710;51.120;13.136;2023-09-19T08:20:05;98965.03;;;30.24;32.43
54329;BME280;40710;51.120;13.136;2023-09-19T08:22:30;98972.09;;;28.08;36.07
54329;BME280;40710;51.120;13.136;2023-09-19T08:24:56;98979.88;;;28.64;35.29
54329;BME280;40710;51.120;13.136;2023-09-19T08:27:20;98991.97;;;27.87;36.36
54329;BME280;40710;51.120;13.136;2023-09-19T08:29:45;98983.75;;;29.42;34.58
54329;BME280;40710;51.120;13.136;2023-09-19T08:32:10;98982.13;;;29.14;34.06
54329;BME280;40710;51.120;13.136;2023-09-19T08:34:36;99002.88;;;26.95;37.80
54329;BME280;40710;51.120;13.136;2023-09-19T08:37:02;98984.75;;;27.94;35.89
54329;BME280;40710;51.120;13.136;2023-09-19T08:39:27;98956.09;;;31.36;31.92
54329;BME280;40710;51.120;13.136;2023-09-19T08:41:59;98989.63;;;28.32;35.57
54329;BME280;40710;51.120;13.136;2023-09-19T08:44:23;99007.06;;;25.60;40.14
54329;BME280;40710;51.120;13.136;2023-09-19T08:46:54;99006.00;;;25.76;40.17
54329;BME280;40710;51.120;13.136;2023-09-19T08:50:23;99010.06;;;24.83;42.21
54329;BME280;40710;51.120;13.136;2023-09-19T08:52:22;99010.88;;;24.83;42.68
54329;BME280;40710;51.120;13.136;2023-09-19T08:54:52;98988.81;;;26.07;40.11
54329;BME280;40710;51.120;13.136;2023-09-19T08:57:19;99013.44;;;24.62;42.46
54329;BME280;40710;51.120;13.136;2023-09-19T08:59:48;99019.00;;;24.75;42.00
54329;BME280;40710;51.120;13.136;2023-09-19T09:02:14;99018.53;;;24.71;42.23
54329;BME280;40710;51.120;13.136;2023-09-19T09:04:41;99004.72;;;25.72;41.44
54329;BME280;40710;51.120;13.136;2023-09-19T09:07:10;99021.94;;;24.88;42.33
54329;BME280;40710;51.120;13.136;2023-09-19T09:09:35;99011.00;;;25.05;41.47
54329;BME280;40710;51.120;13.136;2023-09-19T09:12:00;98990.81;;;26.91;38.93
54329;BME280;40710;51.120;13.136;2023-09-19T09:14:26;99013.38;;;25.38;40.69
54329;BME280;40710;51.120;13.136;2023-09-19T09:16:51;99016.41;;;25.20;40.94
54329;BME280;40710;51.120;13.136;2023-09-19T09:19:16;99019.94;;;24.67;41.25
54329;BME280;40710;51.120;13.136;2023-09-19T09:21:48;99013.41;;;24.85;41.80
54329;BME280;40710;51.120;13.136;2023-09-19T09:24:29;99012.28;;;24.94;41.01
54329;BME280;40710;51.120;13.136;2023-09-19T09:26:55;99013.06;;;25.77;40.10
54329;BME280;40710;51.120;13.136;2023-09-19T09:29:43;99035.06;;;24.68;41.00
54329;BME280;40710;51.120;13.136;2023-09-19T09:32:26;99021.00;;;24.96;41.20
54329;BME280;40710;51.120;13.136;2023-09-19T09:35:01;99010.75;;;25.59;40.33
54329;BME280;40710;51.120;13.136;2023-09-19T09:37:27;98993.22;;;27.43;36.74
54329;BME280;40710;51.120;13.136;2023-09-19T09:39:55;98975.91;;;29.72;33.85
54329;BME280;40710;51.120;13.136;2023-09-19T09:42:34;98977.13;;;29.11;34.01
54329;BME280;40710;51.120;13.136;2023-09-19T09:45:13;98984.59;;;28.16;34.68
54329;BME280;40710;51.120;13.136;2023-09-19T09:47:45;98966.25;;;30.28;32.69
54329;BME280;40710;51.120;13.136;2023-09-19T09:50:27;98952.09;;;31.39;30.59
54329;BME280;40710;51.120;13.136;2023-09-19T09:53:26;98989.81;;;28.51;34.13
54329;BME280;40710;51.120;13.136;2023-09-19T09:56:08;98975.66;;;29.35;32.32
54329;BME280;40710;51.120;13.136;2023-09-19T09:58:35;98990.34;;;26.81;35.69
54329;BME280;40710;51.120;13.136;2023-09-19T10:01:00;98985.53;;;29.68;32.84
54329;BME280;40710;51.120;13.136;2023-09-19T10:03:40;98974.31;;;30.03;31.48
54329;BME280;40710;51.120;13.136;2023-09-19T10:06:11;98967.63;;;30.06;31.70
54329;BME280;40710;51.120;13.136;2023-09-19T10:09:00;98987.59;;;28.88;33.29
54329;BME280;40710;51.120;13.136;2023-09-19T10:11:29;98991.19;;;27.51;34.50
54329;BME280;40710;51.120;13.136;2023-09-19T10:13:54;98980.47;;;29.20;32.42
54329;BME280;40710;51.120;13.136;2023-09-19T10:16:19;98982.75;;;29.75;32.38
54329;BME280;40710;51.120;13.136;2023-09-19T10:18:45;98974.13;;;30.87;31.12
54329;BME280;40710;51.120;13.136;2023-09-19T10:21:13;98974.94;;;30.44;31.39
54329;BME280;40710;51.120;13.136;2023-09-19T10:23:40;98975.41;;;29.95;31.29
54329;BME280;40710;51.120;13.136;2023-09-19T10:26:08;98996.16;;;27.96;35.21
54329;BME280;40710;51.120;13.136;2023-09-19T10:28:34;98966.50;;;30.52;31.18
54329;BME280;40710;51.120;13.136;2023-09-19T10:31:00;98982.03;;;29.54;32.26
54329;BME280;40710;51.120;13.136;2023-09-19T10:33:26;98985.94;;;29.72;31.95
54329;BME280;40710;51.120;13.136;2023-09-19T10:35:51;98994.13;;;29.45;32.17
54329;BME280;40710;51.120;13.136;2023-09-19T10:38:18;98987.88;;;29.51;32.68
54329;BME280;40710;51.120;13.136;2023-09-19T10:40:49;98993.53;;;29.43;32.40
54329;BME280;40710;51.120;13.136;2023-09-19T10:43:19;99010.63;;;27.05;36.28
54329;BME280;40710;51.120;13.136;2023-09-19T10:45:46;99008.03;;;27.95;34.75
54329;BME280;40710;51.120;13.136;2023-09-19T10:48:13;99018.84;;;26.69;36.70
54329;BME280;40710;51.120;13.136;2023-09-19T10:51:16;99023.97;;;26.42;37.03
54329;BME280;40710;51.120;13.136;2023-09-19T10:54:05;99012.22;;;27.00;35.45
54329;BME280;40710;51.120;13.136;2023-09-19T10:56:36;99000.47;;;26.79;35.15
54329;BME280;40710;51.120;13.136;2023-09-19T10:59:06;99013.69;;;26.31;34.80
54329;BME280;40710;51.120;13.136;2023-09-19T11:01:42;98998.59;;;27.08;33.56
54329;BME280;40710;51.120;13.136;2023-09-19T11:04:28;98992.78;;;27.87;32.47
54329;BME280;40710;51.120;13.136;2023-09-19T11:07:00;99000.97;;;28.01;32.48
54329;BME280;40710;51.120;13.136;2023-09-19T11:16:02;99027.56;;;26.49;33.68
54329;BME280;40710;51.120;13.136;2023-09-19T11:26:45;98991.72;;;27.82;31.17
54329;BME280;40710;51.120;13.136;2023-09-19T11:29:28;98987.06;;;27.56;30.59
54329;BME280;40710;51.120;13.136;2023-09-19T11:31:56;98991.78;;;27.47;31.01
54329;BME280;40710;51.120;13.136;2023-09-19T11:37:00;98994.53;;;28.02;30.58
54329;BME280;40710;51.120;13.136;2023-09-19T11:39:26;98997.88;;;27.62;30.71
54329;BME280;40710;51.120;13.136;2023-09-19T11:41:51;98989.38;;;29.47;29.17
54329;BME280;40710;51.120;13.136;2023-09-19T11:49:16;99003.38;;;28.64;29.69
54329;BME280;40710;51.120;13.136;2023-09-19T11:51:45;98990.22;;;28.14;30.56
54329;BME280;40710;51.120;13.136;2023-09-19T11:54:16;98990.69;;;28.84;29.94
54329;BME280;40710;51.120;13.136;2023-09-19T11:56:43;98978.94;;;29.44;29.25
54329;BME280;40710;51.120;13.136;2023-09-19T11:59:08;98982.03;;;29.54;28.38
54329;BME280;40710;51.120;13.136;2023-09-19T12:01:33;98979.25;;;29.81;27.81
54329;BME280;40710;51.120;13.136;2023-09-19T12:04:01;98982.88;;;30.07;27.69
54329;BME280;40710;51.120;13.136;2023-09-19T12:06:27;98994.59;;;29.35;28.30
54329;BME280;40710;51.120;13.136;2023-09-19T12:08:53;98983.25;;;29.58;27.33
54329;BME280;40710;51.120;13.136;2023-09-19T12:11:18;98999.75;;;28.17;29.06
54329;BME280;40710;51.120;13.136;2023-09-19T12:13:45;98988.63;;;28.66;28.19
54329;BME280;40710;51.120;13.136;2023-09-19T12:16:14;99002.75;;;28.95;27.73
54329;BME280;40710;51.120;13.136;2023-09-19T12:18:39;99005.22;;;27.33;31.51
54329;BME280;40710;51.120;13.136;2023-09-19T12:21:06;98995.69;;;28.74;28.88
54329;BME280;40710;51.120;13.136;2023-09-19T12:23:31;98996.50;;;28.68;28.54
54329;BME280;40710;51.120;13.136;2023-09-19T12:25:58;98999.72;;;27.55;29.97
54329;BME280;40710;51.120;13.136;2023-09-19T12:28:27;98989.66;;;28.79;29.03
54329;BME280;40710;51.120;13.136;2023-09-19T12:30:54;98993.59;;;28.96;29.07
54329;BME280;40710;51.120;13.136;2023-09-19T12:33:23;98980.91;;;28.90;28.93
54329;BME280;40710;51.120;13.136;2023-09-19T12:35:51;98981.97;;;28.69;28.94
54329;BME280;40710;51.120;13.136;2023-09-19T12:38:27;98986.31;;;28.83;28.71
54329;BME280;40710;51.120;13.136;2023-09-19T12:40:53;98984.22;;;28.92;29.23
54329;BME280;40710;51.120;13.136;2023-09-19T12:43:18;98997.16;;;27.88;29.82
54329;BME280;40710;51.120;13.136;2023-09-19T12:45:43;98979.59;;;29.39;28.20
54329;BME280;40710;51.120;13.136;2023-09-19T12:48:26;98979.97;;;29.43;28.21
54329;BME280;40710;51.120;13.136;2023-09-19T12:51:00;98980.13;;;29.68;27.72
54329;BME280;40710;51.120;13.136;2023-09-19T12:53:26;98973.66;;;30.08;27.95
54329;BME280;40710;51.120;13.136;2023-09-19T12:56:00;98969.38;;;30.57;27.15
54329;BME280;40710;51.120;13.136;2023-09-19T12:58:25;98963.97;;;30.82;26.51
54329;BME280;40710;51.120;13.136;2023-09-19T13:00:51;98980.59;;;30.04;27.52
54329;BME280;40710;51.120;13.136;2023-09-19T13:08:25;98990.25;;;29.08;29.43
54329;BME280;40710;51.120;13.136;2023-09-19T13:11:10;98983.44;;;30.15;28.74
54329;BME280;40710;51.120;13.136;2023-09-19T13:13:47;98983.66;;;29.62;28.82
54329;BME280;40710;51.120;13.136;2023-09-19T13:16:13;98972.75;;;30.21;28.32
54329;BME280;40710;51.120;13.136;2023-09-19T13:18:45;98980.94;;;29.75;28.53
54329;BME280;40710;51.120;13.136;2023-09-19T13:21:12;98971.63;;;29.58;28.56
54329;BME280;40710;51.120;13.136;2023-09-19T13:23:46;98983.66;;;29.75;28.59
54329;BME280;40710;51.120;13.136;2023-09-19T13:26:10;98967.72;;;30.56;27.70
54329;BME280;40710;51.120;13.136;2023-09-19T13:28:37;98981.94;;;29.16;29.00
54329;BME280;40710;51.120;13.136;2023-09-19T13:31:02;98966.63;;;30.00;28.30